Time;durP1;ratioP1;P1;durP2;ratioP2;P2;SDS_P1;SDS_P2;PMS_P1;PMS_P2;Temp;Humidity;BMP_temperature;BMP_pressure;BME280_temperature;BME280_humidity;BME280_pressure;Samples;Min_cycle;Max_cycle;Signal;HPM_P1;HPM_P2
2022/06/21 00:00:54;;;;;;;;;;;;;;;23.87;43.08;100815.03;2083739;28;994;-54
2022/06/21 00:01:55;;;;;;;;;;;;;;;23.86;43.39;100817.81;2084329;28;855;-54
2022/06/21 00:02:59;;;;;;;;;;;;;;;23.85;43.21;100819.63;2084290;28;1045;-54
2022/06/21 00:04:01;;;;;;;;;;;;;;;23.85;43.67;100816.94;2084313;28;1053;-54
2022/06/21 00:05:01;;;;;;;;;;;;;;;23.86;43.23;100809.72;2084303;28;796;-55
2022/06/21 00:06:02;;;;;;;;;;;;;;;23.85;43.01;100816.94;2083851;28;852;-54
2022/06/21 00:07:04;;;;;;;;;;;;;;;23.83;43.79;100819.72;2084281;28;987;-54
2022/06/21 00:08:05;;;;;;;;;;;;;;;23.84;43.76;100818.78;2084295;28;946;-54
2022/06/21 00:09:05;;;;;;;;;;;;;;;23.83;43.60;100814.31;2084266;28;990;-54
2022/06/21 00:10:06;;;;;;;;;;;;;;;23.82;43.77;100817.09;2084252;28;820;-54
2022/06/21 00:11:19;;;;;;;;;;;;;;;23.82;43.69;100817.09;2083819;28;1041;-54
2022/06/21 00:12:20;;;;;;;;;;;;;;;23.81;43.08;100807.25;2084261;28;831;-54
2022/06/21 00:13:24;;;;;;;;;;;;;;;23.80;43.57;100814.47;2084261;28;875;-54
2022/06/21 00:14:25;;;;;;;;;;;;;;;23.80;43.30;100813.59;2084198;28;1890;-54
2022/06/21 00:15:25;;;;;;;;;;;;;;;23.80;43.51;100810.88;2084245;28;857;-54
2022/06/21 00:16:27;;;;;;;;;;;;;;;23.79;43.56;100817.25;2083681;28;978;-54
2022/06/21 00:17:27;;;;;;;;;;;;;;;23.78;43.64;100821.75;2084283;28;875;-54
2022/06/21 00:18:29;;;;;;;;;;;;;;;23.78;43.28;100819.06;2084216;28;915;-54
2022/06/21 00:19:29;;;;;;;;;;;;;;;23.78;43.78;100815.50;2084215;28;871;-54
2022/06/21 00:20:29;;;;;;;;;;;;;;;23.77;43.17;100814.59;2083513;28;1032;-54
2022/06/21 00:21:34;;;;;;;;;;;;;;;23.77;42.97;100820.00;2083770;28;765;-54
2022/06/21 00:22:34;;;;;;;;;;;;;;;23.76;42.98;100818.25;2083710;28;945;-54
2022/06/21 00:23:34;;;;;;;;;;;;;;;23.76;43.64;100810.13;2084153;28;772;-55
2022/06/21 00:24:35;;;;;;;;;;;;;;;23.77;43.61;100817.31;2084155;28;974;-54
2022/06/21 00:25:35;;;;;;;;;;;;;;;23.76;43.31;100811.97;2084119;28;1041;-55
2022/06/21 00:26:35;;;;;;;;;;;;;;;23.76;43.73;100811.97;2084099;28;1044;-54
2022/06/21 00:27:35;;;;;;;;;;;;;;;23.74;43.53;100806.63;2083458;28;1300;-54
2022/06/21 00:28:35;;;;;;;;;;;;;;;23.73;43.03;100806.72;2084161;28;811;-54
2022/06/21 00:29:35;;;;;;;;;;;;;;;23.73;43.75;100812.13;2084148;28;949;-54
2022/06/21 00:30:36;;;;;;;;;;;;;;;23.72;43.17;100802.25;2084119;28;993;-54
2022/06/21 00:31:39;;;;;;;;;;;;;;;23.70;43.83;100805.03;2084138;28;788;-54
2022/06/21 00:32:40;;;;;;;;;;;;;;;23.70;43.75;100799.59;2083546;28;1174;-54
2022/06/21 00:33:41;;;;;;;;;;;;;;;23.68;43.49;100804.22;2084127;28;788;-55
2022/06/21 00:34:42;;;;;;;;;;;;;;;23.66;43.66;100801.59;2084014;28;1909;-54
2022/06/21 00:35:44;;;;;;;;;;;;;;;23.66;43.22;100807.00;2084112;28;990;-55
2022/06/21 00:36:45;;;;;;;;;;;;;;;23.66;43.52;100803.41;2075213;28;1310;-55
2022/06/21 00:37:46;;;;;;;;;;;;;;;23.65;43.31;100798.94;2075315;28;1334;-55
2022/06/21 00:38:46;;;;;;;;;;;;;;;23.65;43.24;100801.66;2083512;28;1009;-55
2022/06/21 00:39:47;;;;;;;;;;;;;;;23.63;43.90;100796.34;2084058;28;859;-55
2022/06/21 00:40:47;;;;;;;;;;;;;;;23.63;43.38;100798.16;2084048;28;787;-54
2022/06/21 00:41:47;;;;;;;;;;;;;;;23.61;43.34;100797.34;2084000;28;1037;-54
2022/06/21 00:42:51;;;;;;;;;;;;;;;23.61;43.81;100797.34;2083991;28;950;-54
2022/06/21 00:43:53;;;;;;;;;;;;;;;23.61;43.63;100797.34;2083486;28;867;-54
2022/06/21 00:45:00;;;;;;;;;;;;;;;23.60;43.93;100799.19;2084028;28;788;-54
2022/06/21 00:46:01;;;;;;;;;;;;;;;23.58;43.91;100795.66;2083979;28;1115;-54
2022/06/21 00:47:06;;;;;;;;;;;;;;;23.58;44.18;100797.47;2083983;28;871;-54
2022/06/21 00:48:25;;;;;;;;;;;;;;;23.56;44.28;100794.88;2084018;28;846;-54
2022/06/21 00:49:28;;;;;;;;;;;;;;;23.55;43.59;100795.81;2083469;28;986;-54
2022/06/21 00:50:28;;;;;;;;;;;;;;;23.55;43.63;100801.22;2083929;28;1061;-54
2022/06/21 00:51:39;;;;;;;;;;;;;;;23.54;44.46;100808.47;2083938;28;970;-54
2022/06/21 00:52:46;;;;;;;;;;;;;;;23.49;44.10;100799.69;2083921;28;1056;-55
2022/06/21 00:53:48;;;;;;;;;;;;;;;23.49;44.61;100798.78;2083953;28;1029;-54
2022/06/21 00:54:49;;;;;;;;;;;;;;;23.50;44.30;100805.97;2083462;28;1893;-54
2022/06/21 00:55:58;;;;;;;;;;;;;;;23.49;43.84;100805.09;2083875;28;895;-54
2022/06/21 00:57:04;;;;;;;;;;;;;;;23.49;44.23;100807.81;2083883;28;1057;-54
2022/06/21 00:58:05;;;;;;;;;;;;;;;23.48;44.16;100803.34;2083897;28;871;-54
2022/06/21 00:59:15;;;;;;;;;;;;;;;23.47;44.32;100807.00;2083893;28;887;-54
2022/06/21 01:00:25;;;;;;;;;;;;;;;23.47;44.13;100804.28;2083597;28;887;-54
2022/06/21 01:01:30;;;;;;;;;;;;;;;23.46;44.71;100801.66;2083883;28;946;-54
2022/06/21 01:02:33;;;;;;;;;;;;;;;23.45;44.62;100813.41;2083883;28;950;-54
2022/06/21 01:03:59;;;;;;;;;;;;;;;23.44;44.69;100804.44;2083845;28;989;-54
2022/06/21 01:04:59;;;;;;;;;;;;;;;23.43;44.28;100805.38;2079774;28;978;-54
2022/06/21 01:06:01;;;;;;;;;;;;;;;23.43;44.83;100807.19;2083344;28;878;-54
2022/06/21 01:07:03;;;;;;;;;;;;;;;23.43;44.46;100804.47;2083825;28;769;-54
2022/06/21 01:08:04;;;;;;;;;;;;;;;23.42;44.30;100798.22;2074903;28;1279;-54
2022/06/21 01:09:26;;;;;;;;;;;;;;;23.40;45.09;100800.09;2075095;28;780;-54
2022/06/21 01:10:28;;;;;;;;;;;;;;;23.41;45.25;100807.28;2083875;28;1040;-54
2022/06/21 01:11:31;;;;;;;;;;;;;;;23.41;44.64;100801.88;2083605;28;881;-54
2022/06/21 01:12:42;;;;;;;;;;;;;;;23.38;45.11;100807.41;2083813;28;1068;-54
2022/06/21 01:13:44;;;;;;;;;;;;;;;23.37;45.37;100800.25;2083885;28;733;-54
2022/06/21 01:14:50;;;;;;;;;;;;;;;23.37;45.24;100794.84;2083681;28;1955;-54
2022/06/21 01:15:50;;;;;;;;;;;;;;;23.36;45.45;100798.50;2083822;28;780;-54
2022/06/21 01:16:51;;;;;;;;;;;;;;;23.36;45.48;100796.66;2083747;28;984;-54
2022/06/21 01:17:55;;;;;;;;;;;;;;;23.36;45.66;100799.34;2083224;28;878;-54
2022/06/21 01:18:55;;;;;;;;;;;;;;;23.35;45.00;100796.75;2083761;28;859;-54
2022/06/21 01:20:01;;;;;;;;;;;;;;;23.35;45.56;100799.44;2083714;28;978;-54
2022/06/21 01:21:02;;;;;;;;;;;;;;;23.35;45.16;100791.34;2074900;28;1036;-54
2022/06/21 01:22:08;;;;;;;;;;;;;;;23.35;45.46;100802.16;2075035;28;827;-54
2022/06/21 01:23:17;;;;;;;;;;;;;;;23.35;45.61;100791.34;2083124;28;1711;-54
2022/06/21 01:24:23;;;;;;;;;;;;;;;23.35;44.86;100791.34;2083746;28;990;-54
2022/06/21 01:25:26;;;;;;;;;;;;;;;23.34;45.55;100795.84;2083730;28;1383;-54
2022/06/21 01:26:37;;;;;;;;;;;;;;;23.33;45.57;100791.38;2083685;28;930;-54
2022/06/21 01:27:38;;;;;;;;;;;;;;;23.34;45.17;100793.16;2090443;23;1583;-54
2022/06/21 01:28:38;;;;;;;;;;;;;;;23.34;45.11;100789.59;2083150;28;1044;-54
2022/06/21 01:29:39;;;;;;;;;;;;;;;23.34;45.10;100789.59;2083714;28;764;-54
2022/06/21 01:30:41;;;;;;;;;;;;;;;23.34;45.80;100792.28;2083680;28;799;-54
2022/06/21 01:31:42;;;;;;;;;;;;;;;23.33;45.85;100787.81;2083547;28;1072;-54
2022/06/21 01:32:43;;;;;;;;;;;;;;;23.32;45.20;100791.47;2083636;28;1133;-54
2022/06/21 01:33:43;;;;;;;;;;;;;;;23.31;45.21;100793.28;2083623;28;899;-54
2022/06/21 01:34:43;;;;;;;;;;;;;;;23.31;45.30;100792.41;2083005;28;1910;-54
2022/06/21 01:35:49;;;;;;;;;;;;;;;23.30;45.88;100796.06;2083561;28;1014;-54
2022/06/21 01:36:55;;;;;;;;;;;;;;;23.29;45.60;100792.47;2083587;28;764;-54
2022/06/21 01:37:55;;;;;;;;;;;;;;;23.28;46.06;100797.97;2083573;28;946;-54
2022/06/21 01:39:01;;;;;;;;;;;;;;;23.27;45.80;100794.38;2083546;28;1033;-54
2022/06/21 01:40:06;;;;;;;;;;;;;;;23.28;46.21;100790.72;2083178;28;1056;-54
2022/06/21 01:41:08;;;;;;;;;;;;;;;23.28;45.51;100790.72;2083521;28;1010;-54
2022/06/21 01:42:11;;;;;;;;;;;;;;;23.28;46.23;100795.25;2083538;28;887;-54
2022/06/21 01:43:14;;;;;;;;;;;;;;;23.29;46.02;100786.22;2083534;28;1029;-54
2022/06/21 01:44:21;;;;;;;;;;;;;;;23.28;45.71;100788.00;2083560;28;990;-54
2022/06/21 01:45:24;;;;;;;;;;;;;;;23.27;46.33;100786.25;2083483;28;1002;-54
2022/06/21 01:46:27;;;;;;;;;;;;;;;23.27;45.57;100783.56;2083226;28;1077;-54
2022/06/21 01:47:31;;;;;;;;;;;;;;;23.27;45.82;100786.25;2083500;28;879;-54
2022/06/21 01:48:34;;;;;;;;;;;;;;;23.28;46.30;100792.56;2083505;28;985;-54
2022/06/21 01:49:36;;;;;;;;;;;;;;;23.27;45.54;100785.41;2083498;28;1009;-54
2022/06/21 01:50:37;;;;;;;;;;;;;;;23.26;46.59;100786.34;2083434;28;780;-54
2022/06/21 01:51:42;;;;;;;;;;;;;;;23.26;46.54;100783.66;2082874;28;2032;-54
2022/06/21 01:52:45;;;;;;;;;;;;;;;23.25;45.74;100782.78;2083448;28;859;-54
2022/06/21 01:53:45;;;;;;;;;;;;;;;23.27;46.52;100788.09;2083496;28;879;-54
2022/06/21 01:54:49;;;;;;;;;;;;;;;23.26;46.13;100778.25;2083377;28;1889;-53
2022/06/21 01:55:55;;;;;;;;;;;;;;;23.26;46.49;100780.94;2083542;28;1073;-54
2022/06/21 01:56:55;;;;;;;;;;;;;;;23.27;46.18;100788.09;2083048;28;992;-54
2022/06/21 01:57:58;;;;;;;;;;;;;;;23.26;46.04;100783.66;2083415;28;851;-55
2022/06/21 01:59:04;;;;;;;;;;;;;;;23.26;46.44;100787.22;2083431;28;1077;-54
2022/06/21 02:00:05;;;;;;;;;;;;;;;23.25;46.60;100774.69;2083397;28;997;-54
2022/06/21 02:01:11;;;;;;;;;;;;;;;23.24;45.96;100781.88;2083259;28;1663;-54
2022/06/21 02:02:13;;;;;;;;;;;;;;;23.26;46.60;100775.53;2083420;28;914;-54
2022/06/21 02:03:18;;;;;;;;;;;;;;;23.24;46.44;100773.78;2082840;28;875;-54
2022/06/21 02:04:21;;;;;;;;;;;;;;;23.24;46.59;100775.63;2083654;28;903;-54
2022/06/21 02:05:23;;;;;;;;;;;;;;;23.23;46.69;100766.63;2083343;28;895;-54
2022/06/21 02:06:26;;;;;;;;;;;;;;;23.22;46.11;100767.56;2083391;28;938;-54
2022/06/21 02:07:29;;;;;;;;;;;;;;;23.22;46.60;100770.28;2083464;28;697;-55
2022/06/21 02:08:33;;;;;;;;;;;;;;;23.22;46.51;100764.88;2082813;28;1282;-53
2022/06/21 02:09:38;;;;;;;;;;;;;;;23.22;46.19;100767.56;2083354;28;985;-54
2022/06/21 02:10:45;;;;;;;;;;;;;;;23.22;46.55;100764.88;2083302;28;1001;-54
2022/06/21 02:11:47;;;;;;;;;;;;;;;23.23;46.72;100765.75;2083326;28;840;-54
2022/06/21 02:12:53;;;;;;;;;;;;;;;23.23;46.47;100763.06;2083349;28;1002;-54
2022/06/21 02:15:29;;;;;;;;;;;;;;;23.23;45.90;100761.22;2083341;28;1949;-54
2022/06/21 02:16:29;;;;;;;;;;;;;;;23.22;45.84;100762.16;2083344;28;863;-54
2022/06/21 02:17:32;;;;;;;;;;;;;;;23.22;46.48;100764.88;2083339;28;1052;-54
2022/06/21 02:18:33;;;;;;;;;;;;;;;23.22;46.78;100758.56;2083277;28;791;-54
2022/06/21 02:19:42;;;;;;;;;;;;;;;23.23;46.56;100766.63;2083306;28;959;-54
2022/06/21 02:20:45;;;;;;;;;;;;;;;23.21;45.89;100757.69;2082758;28;1117;-54
2022/06/21 02:21:45;;;;;;;;;;;;;;;23.21;46.20;100760.38;2083245;28;792;-53
2022/06/21 02:22:46;;;;;;;;;;;;;;;23.22;46.49;100763.97;2083266;28;989;-54
2022/06/21 02:23:49;;;;;;;;;;;;;;;23.22;46.57;100764.88;2083277;28;994;-53
2022/06/21 02:24:50;;;;;;;;;;;;;;;23.22;46.70;100767.56;2083231;28;967;-53
2022/06/21 02:25:51;;;;;;;;;;;;;;;23.23;45.90;100761.22;2082885;28;988;-55
2022/06/21 02:26:51;;;;;;;;;;;;;;;23.22;46.01;100766.66;2083250;28;992;-54
2022/06/21 02:27:55;;;;;;;;;;;;;;;23.21;46.80;100763.06;2083101;28;1227;-54
2022/06/21 02:28:55;;;;;;;;;;;;;;;23.21;46.05;100768.47;2083239;28;777;-54
2022/06/21 02:29:57;;;;;;;;;;;;;;;23.19;46.17;100767.66;2083353;28;800;-54
2022/06/21 02:30:58;;;;;;;;;;;;;;;23.21;46.49;100773.03;2083236;28;815;-54
2022/06/21 02:31:59;;;;;;;;;;;;;;;23.22;46.71;100769.38;2082680;28;1063;-54
2022/06/21 02:33:01;;;;;;;;;;;;;;;23.24;46.02;100772.91;2083237;28;842;-54
2022/06/21 02:34:03;;;;;;;;;;;;;;;23.23;46.19;100774.72;2083160;28;784;-54
2022/06/21 02:35:15;;;;;;;;;;;;;;;23.22;46.26;100775.69;2083159;28;1965;-54
2022/06/21 02:36:20;;;;;;;;;;;;;;;23.22;46.82;100770.28;2083243;28;799;-54
2022/06/21 02:37:20;;;;;;;;;;;;;;;23.22;46.76;100769.38;2083153;28;1120;-54
2022/06/21 02:38:32;;;;;;;;;;;;;;;23.22;46.76;100775.69;2082564;28;997;-54
2022/06/21 02:39:33;;;;;;;;;;;;;;;23.22;46.10;100775.69;2083067;28;1307;-54
2022/06/21 02:40:37;;;;;;;;;;;;;;;23.20;46.58;100771.28;2083165;28;804;-54
2022/06/21 02:41:39;;;;;;;;;;;;;;;23.18;46.51;100773.16;2083132;28;887;-53
2022/06/21 02:42:40;;;;;;;;;;;;;;;23.16;46.22;100767.81;2083137;28;1052;-54
2022/06/21 02:43:43;;;;;;;;;;;;;;;23.14;46.58;100767.00;2082152;28;1000;-54
2022/06/21 02:44:46;;;;;;;;;;;;;;;23.10;46.39;100770.78;2083060;28;1033;-54
2022/06/21 02:45:49;;;;;;;;;;;;;;;23.06;47.28;100764.66;2083132;28;871;-54
2022/06/21 02:46:51;;;;;;;;;;;;;;;23.04;46.76;100774.66;2083127;28;890;-54
2022/06/21 02:47:53;;;;;;;;;;;;;;;23.02;47.31;100773.84;2074296;28;1117;-54
2022/06/21 02:48:56;;;;;;;;;;;;;;;23.03;47.11;100772.00;2074512;28;1061;-53
2022/06/21 02:49:59;;;;;;;;;;;;;;;23.04;47.31;100771.97;2082515;28;1287;-54
2022/06/21 02:51:12;;;;;;;;;;;;;;;23.05;46.78;100770.13;2083105;28;941;-54
2022/06/21 02:52:16;;;;;;;;;;;;;;;23.06;47.17;100774.56;2083180;28;879;-54
2022/06/21 02:53:22;;;;;;;;;;;;;;;23.06;47.31;100770.06;2083104;28;970;-54
2022/06/21 02:54:26;;;;;;;;;;;;;;;23.07;46.48;100766.41;2083112;28;859;-54
2022/06/21 02:55:32;;;;;;;;;;;;;;;23.06;47.08;100769.16;2082543;28;1127;-54
2022/06/21 02:56:36;;;;;;;;;;;;;;;23.06;47.38;100763.75;2083181;28;806;-54
2022/06/21 02:57:41;;;;;;;;;;;;;;;23.05;46.93;100768.31;2083109;28;1052;-54
2022/06/21 02:58:45;;;;;;;;;;;;;;;23.05;47.33;100767.41;2083076;28;1648;-54
2022/06/21 02:59:46;;;;;;;;;;;;;;;23.05;47.38;100765.59;2083069;28;986;-54
2022/06/21 03:00:46;;;;;;;;;;;;;;;23.06;47.38;100771.88;2083109;28;985;-53
2022/06/21 03:01:53;;;;;;;;;;;;;;;23.06;46.61;100771.88;2082664;28;1041;-55
2022/06/21 03:02:54;;;;;;;;;;;;;;;23.06;46.43;100774.56;2083126;28;796;-54
2022/06/21 03:03:56;;;;;;;;;;;;;;;23.06;46.65;100770.06;2083086;28;993;-54
2022/06/21 03:04:57;;;;;;;;;;;;;;;23.07;47.35;100773.63;2083091;28;808;-54
2022/06/21 03:05:59;;;;;;;;;;;;;;;23.07;47.08;100770.94;2083094;28;780;-53
2022/06/21 03:07:00;;;;;;;;;;;;;;;23.06;46.64;100769.16;2082821;28;982;-54
2022/06/21 03:08:03;;;;;;;;;;;;;;;23.04;47.11;100766.56;2082931;28;1052;-54
2022/06/21 03:09:06;;;;;;;;;;;;;;;23.04;47.48;100768.38;2083016;28;799;-54
2022/06/21 03:10:07;;;;;;;;;;;;;;;23.04;46.72;100766.56;2083020;28;867;-53
2022/06/21 03:11:07;;;;;;;;;;;;;;;23.03;47.01;100758.50;2082955;28;1122;-54
2022/06/21 03:12:08;;;;;;;;;;;;;;;23.02;47.45;100754.03;2082969;28;1045;-54
2022/06/21 03:13:08;;;;;;;;;;;;;;;23.01;47.04;100747.78;2082534;28;1217;-54
2022/06/21 03:14:11;;;;;;;;;;;;;;;23.01;46.77;100746.88;2074320;28;1417;-54
2022/06/21 03:15:11;;;;;;;;;;;;;;;23.00;47.47;100766.75;2074454;28;1890;-54
2022/06/21 03:16:13;;;;;;;;;;;;;;;23.01;46.93;100752.28;2083018;28;966;-54
2022/06/21 03:17:16;;;;;;;;;;;;;;;22.97;47.43;100756.97;2082975;28;1049;-54
2022/06/21 03:18:19;;;;;;;;;;;;;;;22.98;47.49;100752.44;2083127;28;818;-54
2022/06/21 03:19:25;;;;;;;;;;;;;;;22.95;47.18;100754.34;2082524;28;1044;-54
2022/06/21 03:20:25;;;;;;;;;;;;;;;22.93;46.83;100756.25;2083012;28;923;-54
2022/06/21 03:21:27;;;;;;;;;;;;;;;22.91;47.55;100760.84;2082980;28;844;-53
2022/06/21 03:22:30;;;;;;;;;;;;;;;22.91;47.60;100751.84;2083001;28;765;-54
2022/06/21 03:23:31;;;;;;;;;;;;;;;22.91;47.33;100760.84;2082978;28;977;-54
2022/06/21 03:24:32;;;;;;;;;;;;;;;22.91;46.98;100755.44;2082959;28;831;-54
2022/06/21 03:25:38;;;;;;;;;;;;;;;22.92;47.76;100762.59;2082419;28;1119;-54
2022/06/21 03:26:39;;;;;;;;;;;;;;;22.92;47.53;100751.78;2082922;28;958;-54
2022/06/21 03:27:52;;;;;;;;;;;;;;;22.93;47.41;100758.06;2082810;28;1301;-54
2022/06/21 03:28:52;;;;;;;;;;;;;;;22.93;47.60;100753.53;2082952;28;796;-54
2022/06/21 03:29:53;;;;;;;;;;;;;;;22.92;47.30;100757.19;2082956;28;779;-54
2022/06/21 03:31:06;;;;;;;;;;;;;;;22.93;47.11;100758.06;2082812;28;1176;-55
2022/06/21 03:32:07;;;;;;;;;;;;;;;22.92;46.87;100751.78;2074813;28;1009;-53
2022/06/21 03:33:07;;;;;;;;;;;;;;;22.93;47.46;100750.84;2074866;28;1006;-54
2022/06/21 03:34:09;;;;;;;;;;;;;;;22.92;47.55;100750.88;2074765;28;860;-54
2022/06/21 03:35:11;;;;;;;;;;;;;;;22.91;47.62;100757.25;2074738;28;1914;-54
2022/06/21 03:36:12;;;;;;;;;;;;;;;22.90;47.32;100745.56;2074813;28;799;-54
2022/06/21 03:37:13;;;;;;;;;;;;;;;22.90;47.00;100747.38;2076776;28;968;-54
2022/06/21 03:38:13;;;;;;;;;;;;;;;22.90;46.68;100752.78;2083047;28;882;-54
2022/06/21 03:41:42;;;;;;;;;;;;;;;22.90;47.38;100748.28;2082931;28;887;-54
2022/06/21 03:42:03;;;;;;;;;;;;;;;22.89;46.97;100746.53;2082839;28;1493;-54
2022/06/21 03:43:24;;;;;;;;;;;;;;;22.89;46.51;100743.81;2082398;28;992;-54
2022/06/21 03:44:27;;;;;;;;;;;;;;;22.88;45.92;100746.56;2057586;28;1042;-54
2022/06/21 03:45:32;;;;;;;;;;;;;;;22.88;45.68;100750.16;2057614;28;1001;-54
2022/06/21 03:46:37;;;;;;;;;;;;;;;22.88;46.27;100746.56;2057649;28;946;-54
2022/06/21 03:47:42;;;;;;;;;;;;;;;22.87;46.11;100743.00;2057660;28;919;-54
2022/06/21 03:48:46;;;;;;;;;;;;;;;22.87;45.99;100747.50;2057660;28;987;-54
2022/06/21 03:49:54;;;;;;;;;;;;;;;22.87;45.57;100750.22;2057051;28;1097;-54
2022/06/21 03:51:01;;;;;;;;;;;;;;;22.85;44.99;100738.59;2057687;28;798;-54
2022/06/21 03:52:05;;;;;;;;;;;;;;;22.85;44.90;100746.72;2057685;28;1057;-54
2022/06/21 03:53:17;;;;;;;;;;;;;;;22.85;45.36;100744.91;2057611;28;785;-54
2022/06/21 03:54:31;;;;;;;;;;;;;;;22.87;45.39;100742.13;2057661;28;983;-55
2022/06/21 03:55:37;;;;;;;;;;;;;;;22.85;44.87;100742.19;2058183;28;1037;-54
2022/06/21 03:56:49;;;;;;;;;;;;;;;22.85;44.40;100747.59;2059123;28;925;-54
2022/06/21 03:57:54;;;;;;;;;;;;;;;22.85;44.84;100742.19;2051013;29;805;-54
2022/06/21 03:58:58;;;;;;;;;;;;;;;22.86;44.58;100743.06;2051631;28;1050;-54
2022/06/21 04:00:09;;;;;;;;;;;;;;;22.85;44.58;100738.59;2059033;28;1005;-54
2022/06/21 04:01:17;;;;;;;;;;;;;;;22.85;43.90;100747.59;2058927;28;1099;-54
2022/06/21 04:02:23;;;;;;;;;;;;;;;23.24;43.46;100735.94;2059182;28;715;-54
2022/06/21 04:03:27;;;;;;;;;;;;;;;24.70;39.85;100745.09;2059068;28;859;-53
2022/06/21 04:04:42;;;;;;;;;;;;;;;25.62;37.69;100745.63;2059074;28;848;-53
2022/06/21 04:05:52;;;;;;;;;;;;;;;26.34;36.26;100737.03;2059072;28;983;-52
2022/06/21 04:07:00;;;;;;;;;;;;;;;26.98;35.08;100733.19;2059025;28;832;-53
2022/06/21 04:08:23;;;;;;;;;;;;;;;27.56;33.91;100741.34;2058514;28;1088;-52
2022/06/21 04:09:31;;;;;;;;;;;;;;;27.87;33.46;100733.91;2059024;28;930;-54
2022/06/21 04:10:37;;;;;;;;;;;;;;;27.99;33.13;100737.66;2059036;28;903;-53
2022/06/21 04:11:42;;;;;;;;;;;;;;;28.19;33.00;100742.69;2059009;28;986;-53
2022/06/21 04:12:47;;;;;;;;;;;;;;;28.51;32.25;100742.31;2059069;28;772;-54
2022/06/21 04:13:53;;;;;;;;;;;;;;;28.64;32.04;100742.34;2058353;28;1052;-54
2022/06/21 04:14:56;;;;;;;;;;;;;;;28.87;31.36;100729.00;2058874;28;1894;-54
2022/06/21 04:15:57;;;;;;;;;;;;;;;29.33;30.17;100740.28;2058861;28;894;-54
2022/06/21 04:16:57;;;;;;;;;;;;;;;29.52;30.29;100734.41;2058972;28;777;-54
2022/06/21 04:18:14;;;;;;;;;;;;;;;29.68;30.35;100734.16;2058988;28;796;-54
2022/06/21 04:19:21;;;;;;;;;;;;;;;30.03;29.44;100734.25;2059025;28;1044;-54
2022/06/21 04:20:26;;;;;;;;;;;;;;;30.18;29.34;100731.34;2058354;28;1104;-54
2022/06/21 04:21:49;;;;;;;;;;;;;;;30.35;29.23;100735.50;2058911;28;990;-54
2022/06/21 04:22:53;;;;;;;;;;;;;;;30.74;28.77;100732.53;2084249;28;776;-54
2022/06/21 04:24:14;;;;;;;;;;;;;;;31.08;28.08;100727.13;2084176;28;874;-54
2022/06/21 04:25:31;;;;;;;;;;;;;;;31.00;28.49;100729.63;2083675;28;1022;-54
2022/06/21 04:26:34;;;;;;;;;;;;;;;31.20;28.09;100734.38;2083551;28;1004;-55
2022/06/21 04:27:38;;;;;;;;;;;;;;;31.48;27.83;100734.84;2083990;28;1091;-54
2022/06/21 04:28:42;;;;;;;;;;;;;;;31.60;27.54;100737.59;2084115;28;978;-54
2022/06/21 04:29:51;;;;;;;;;;;;;;;31.62;27.38;100738.34;2084119;28;875;-54
2022/06/21 04:31:00;;;;;;;;;;;;;;;31.80;27.06;100738.69;2084096;28;894;-54
2022/06/21 04:32:01;;;;;;;;;;;;;;;32.24;26.35;100735.94;2083592;28;1122;-54
2022/06/21 04:33:08;;;;;;;;;;;;;;;32.33;26.34;100737.06;2084143;28;780;-54
2022/06/21 04:34:15;;;;;;;;;;;;;;;32.28;26.42;100739.28;2084070;28;831;-54
2022/06/21 04:35:15;;;;;;;;;;;;;;;32.61;25.88;100741.00;2083993;28;1910;-55
2022/06/21 04:36:24;;;;;;;;;;;;;;;32.58;25.88;100735.78;2084116;28;843;-54
2022/06/21 04:37:29;;;;;;;;;;;;;;;32.57;25.95;100736.78;2083973;28;1183;-54
2022/06/21 04:38:35;;;;;;;;;;;;;;;32.89;25.67;100741.38;2083528;28;993;-54
2022/06/21 04:39:38;;;;;;;;;;;;;;;32.57;26.13;100742.28;2084022;28;780;-54
2022/06/21 04:40:38;;;;;;;;;;;;;;;32.68;25.87;100739.47;2084058;28;843;-54
2022/06/21 04:41:43;;;;;;;;;;;;;;;32.73;25.92;100746.44;2084042;28;804;-54
2022/06/21 04:42:48;;;;;;;;;;;;;;;32.81;25.74;100749.38;2084047;28;776;-54
2022/06/21 04:44:09;;;;;;;;;;;;;;;33.14;25.35;100754.78;2084035;28;938;-54
2022/06/21 04:45:18;;;;;;;;;;;;;;;33.08;25.63;100743.34;2083489;28;1045;-54
2022/06/21 04:46:24;;;;;;;;;;;;;;;33.24;25.29;100756.56;2084028;28;973;-54
2022/06/21 04:47:38;;;;;;;;;;;;;;;33.08;25.61;100745.22;2084037;28;937;-55
2022/06/21 04:48:45;;;;;;;;;;;;;;;32.87;25.49;100750.72;2084026;28;1056;-54
2022/06/21 04:49:49;;;;;;;;;;;;;;;32.81;25.71;100749.38;2083949;28;787;-54
2022/06/21 04:50:54;;;;;;;;;;;;;;;33.06;24.91;100753.59;2083414;28;1120;-54
2022/06/21 04:52:10;;;;;;;;;;;;;;;32.65;25.49;100752.59;2083974;28;1002;-54
2022/06/21 04:53:23;;;;;;;;;;;;;;;33.30;24.77;100754.28;2083952;28;989;-54
2022/06/21 04:54:25;;;;;;;;;;;;;;;33.26;24.75;100756.44;2084123;28;989;-54
2022/06/21 04:55:30;;;;;;;;;;;;;;;33.40;24.33;100756.09;2083880;28;1955;-54
2022/06/21 04:56:57;;;;;;;;;;;;;;;33.39;24.43;100754.34;2083948;28;966;-54
2022/06/21 04:57:57;;;;;;;;;;;;;;;33.41;24.38;100756.97;2081610;28;1126;-54
2022/06/21 04:58:57;;;;;;;;;;;;;;;33.38;24.46;100752.59;2083953;28;766;-54
2022/06/21 05:00:03;;;;;;;;;;;;;;;33.50;24.03;100756.13;2083907;28;974;-54
2022/06/21 05:01:29;;;;;;;;;;;;;;;33.78;23.86;100750.84;2083882;28;835;-54
2022/06/21 05:02:30;;;;;;;;;;;;;;;33.69;23.73;100751.69;2083711;28;976;-54
2022/06/21 05:03:36;;;;;;;;;;;;;;;33.64;23.66;100752.13;2083334;28;1052;-54
2022/06/21 05:04:39;;;;;;;;;;;;;;;33.93;23.56;100754.09;2083895;28;855;-54
2022/06/21 05:05:39;;;;;;;;;;;;;;;33.92;23.53;100748.75;2083847;28;994;-54
2022/06/21 05:06:41;;;;;;;;;;;;;;;33.76;23.59;100750.13;2083485;28;855;-54
2022/06/21 05:07:44;;;;;;;;;;;;;;;33.99;23.50;100753.53;2083822;28;898;-54
2022/06/21 05:08:47;;;;;;;;;;;;;;;34.21;23.25;100750.63;2083834;28;1084;-54
2022/06/21 05:09:48;;;;;;;;;;;;;;;34.40;23.46;100736.06;2083351;28;1172;-54
2022/06/21 05:10:50;;;;;;;;;;;;;;;34.10;22.99;100747.03;2083775;28;1005;-54
2022/06/21 05:11:56;;;;;;;;;;;;;;;34.09;23.40;100741.69;2074929;28;1392;-54
2022/06/21 05:12:59;;;;;;;;;;;;;;;34.01;23.32;100742.41;2075789;28;812;-54
2022/06/21 05:13:59;;;;;;;;;;;;;;;33.94;23.63;100746.72;2083929;28;1057;-54
2022/06/21 05:15:15;;;;;;;;;;;;;;;33.83;23.69;100740.31;2083694;28;1981;-54
2022/06/21 05:16:37;;;;;;;;;;;;;;;33.90;23.70;100746.09;2083302;28;1044;-54
2022/06/21 05:17:39;;;;;;;;;;;;;;;33.95;23.38;100749.31;2083805;28;808;-54
2022/06/21 05:18:42;;;;;;;;;;;;;;;33.93;23.62;100753.25;2083720;28;1045;-54
2022/06/21 05:19:49;;;;;;;;;;;;;;;33.65;23.72;100750.25;2083728;28;997;-54
2022/06/21 05:21:00;;;;;;;;;;;;;;;33.81;23.50;100752.47;2083885;28;859;-54
2022/06/21 05:22:07;;;;;;;;;;;;;;;34.31;23.07;100745.16;2083206;28;1211;-54
2022/06/21 05:23:09;;;;;;;;;;;;;;;34.31;23.51;100748.78;2083712;28;847;-54
2022/06/21 05:24:11;;;;;;;;;;;;;;;34.15;23.38;100749.34;2083746;28;994;-54
2022/06/21 05:25:30;;;;;;;;;;;;;;;34.07;23.61;100746.44;2083697;28;1080;-54
2022/06/21 05:26:36;;;;;;;;;;;;;;;34.40;23.02;100749.81;2083720;28;768;-54
2022/06/21 05:27:44;;;;;;;;;;;;;;;34.17;23.46;100750.06;2083535;28;1078;-54
2022/06/21 05:28:48;;;;;;;;;;;;;;;34.44;23.55;100745.75;2083156;28;1086;-54
2022/06/21 05:29:51;;;;;;;;;;;;;;;34.61;23.44;100746.91;2083610;28;891;-54
2022/06/21 05:30:54;;;;;;;;;;;;;;;34.38;23.70;100744.44;2083725;28;898;-54
2022/06/21 05:31:57;;;;;;;;;;;;;;;34.38;23.95;100743.56;2083623;28;962;-54
2022/06/21 05:33:00;;;;;;;;;;;;;;;34.55;23.87;100739.25;2083576;28;848;-54
2022/06/21 05:34:00;;;;;;;;;;;;;;;34.64;23.76;100745.75;2083467;28;1009;-54
2022/06/21 05:35:06;;;;;;;;;;;;;;;34.56;24.20;100744.59;2082962;28;1976;-54
2022/06/21 05:36:09;;;;;;;;;;;;;;;34.67;23.92;100743.56;2083559;28;998;-54
2022/06/21 05:37:18;;;;;;;;;;;;;;;34.37;24.61;100736.34;2083586;28;974;-54
2022/06/21 05:38:23;;;;;;;;;;;;;;;34.42;24.60;100742.28;2074684;28;978;-54
2022/06/21 05:39:30;;;;;;;;;;;;;;;34.65;24.36;100740.09;2075300;28;871;-55
2022/06/21 05:40:42;;;;;;;;;;;;;;;34.56;24.49;100740.97;2083528;28;854;-54
2022/06/21 05:41:43;;;;;;;;;;;;;;;34.66;24.38;100740.97;2083024;28;1057;-55